Time;durP1;ratioP1;P1;durP2;ratioP2;P2;SDS_P1;SDS_P2;PMS_P1;PMS_P2;Temp;Humidity;BMP_temperature;BMP_pressure;BME280_temperature;BME280_humidity;BME280_pressure;Samples;Min_cycle;Max_cycle;Signal;HPM_P1;HPM_P2
2023/12/11 00:00:15;;;;;;;;;;;;;;;-144.99;100.00;52682.50;5068765;28;19928;-74
2023/12/11 00:02:42;;;;;;;;;;;;;;;-144.99;100.00;52627.47;5072269;28;19978;-74
2023/12/11 00:05:09;;;;;;;;;;;;;;;-144.99;100.00;52649.88;5067098;28;19970;-75
2023/12/11 00:07:35;;;;;;;;;;;;;;;-144.99;100.00;52643.78;5069837;28;19947;-75
2023/12/11 00:10:03;;;;;;;;;;;;;;;-144.99;100.00;52682.50;5078404;28;19962;-74
2023/12/11 00:12:30;;;;;;;;;;;;;;;-144.99;100.00;52668.22;5076532;28;19928;-76
2023/12/11 00:14:56;;;;;;;;;;;;;;;-144.99;100.00;52631.53;5069030;28;19978;-74
2023/12/11 00:17:23;;;;;;;;;;;;;;;-144.99;100.00;52664.16;5069103;28;19939;-75
2023/12/11 00:19:49;;;;;;;;;;;;;;;-144.99;100.00;52692.69;5070823;28;19929;-74
2023/12/11 00:22:16;;;;;;;;;;;;;;;-144.99;100.00;52651.94;5064415;28;19932;-75
2023/12/11 00:24:42;;;;;;;;;;;;;;;-144.99;100.00;52674.34;5058726;28;19929;-74
2023/12/11 00:27:11;;;;;;;;;;;;;;;-144.99;100.00;52639.69;5064120;28;19928;-74
2023/12/11 00:29:38;;;;;;;;;;;;;;;-144.99;100.00;52664.16;5066270;28;19925;-74
2023/12/11 00:32:05;;;;;;;;;;;;;;;-144.99;100.00;52651.94;5069519;28;19932;-74
2023/12/11 00:34:32;;;;;;;;;;;;;;;-144.99;100.00;52672.31;5069930;28;19998;-74
2023/12/11 00:36:59;;;;;;;;;;;;;;;-144.99;100.00;52700.84;5068986;28;19925;-74
2023/12/11 00:39:25;;;;;;;;;;;;;;;-144.99;100.00;52700.84;5070127;28;19932;-74
2023/12/11 00:41:52;;;;;;;;;;;;;;;-144.99;100.00;52656.00;5070495;28;19932;-76
2023/12/11 00:44:20;;;;;;;;;;;;;;;-144.99;100.00;52664.16;5069145;28;19952;-76
2023/12/11 00:46:46;;;;;;;;;;;;;;;-144.99;100.00;52709.00;5061854;28;20377;-75
2023/12/11 00:49:13;;;;;;;;;;;;;;;-144.99;100.00;52664.16;5067392;28;19924;-76
2023/12/11 00:51:39;;;;;;;;;;;;;;;-144.99;100.00;52676.38;5059256;28;19932;-75
2023/12/11 00:54:06;;;;;;;;;;;;;;;-144.99;100.00;52711.03;5060120;28;20454;-76
2023/12/11 00:56:33;;;;;;;;;;;;;;;-144.99;100.00;52680.47;5069350;28;20378;-76
2023/12/11 00:58:59;;;;;;;;;;;;;;;-144.99;100.00;52668.22;5059237;28;19931;-76
2023/12/11 01:01:27;;;;;;;;;;;;;;;-144.99;100.00;52676.38;5058616;28;19941;-75
2023/12/11 01:03:54;;;;;;;;;;;;;;;-144.99;100.00;52688.63;5060412;28;19924;-75
2023/12/11 01:06:20;;;;;;;;;;;;;;;-144.99;100.00;52647.84;5061261;28;19925;-76
2023/12/11 01:11:20;;;;;;;;;;;;;;;-144.99;100.00;52698.81;5026410;28;19925;-64
2023/12/11 01:13:47;;;;;;;;;;;;;;;-144.99;100.00;52670.28;5028345;28;19929;-65
2023/12/11 01:16:14;;;;;;;;;;;;;;;-144.99;100.00;52656.00;5018849;28;19940;-65
2023/12/11 01:18:42;;;;;;;;;;;;;;;-144.99;100.00;52684.53;5018396;28;19925;-66
2023/12/11 01:21:09;;;;;;;;;;;;;;;-144.99;100.00;52639.69;5010142;28;19929;-65
2023/12/11 01:23:35;;;;;;;;;;;;;;;-144.99;100.00;52688.63;5009154;28;19937;-68
2023/12/11 01:26:02;;;;;;;;;;;;;;;-144.99;100.00;52672.31;5013845;28;19929;-65
2023/12/11 01:28:28;;;;;;;;;;;;;;;-144.99;100.00;52660.09;5020031;28;19933;-66
2023/12/11 01:30:55;;;;;;;;;;;;;;;-144.99;100.00;52660.09;5010569;28;19933;-65
2023/12/11 01:33:21;;;;;;;;;;;;;;;-144.99;100.00;52660.09;5012723;28;19929;-65
2023/12/11 01:35:49;;;;;;;;;;;;;;;-144.99;100.00;52647.84;5016423;28;19936;-64
2023/12/11 01:38:16;;;;;;;;;;;;;;;-144.99;100.00;52660.09;5015571;28;19929;-64
2023/12/11 01:40:43;;;;;;;;;;;;;;;-144.99;100.00;52639.69;5009201;28;19980;-63
2023/12/11 01:43:13;;;;;;;;;;;;;;;-144.99;100.00;52656.00;5007579;28;19984;-63
2023/12/11 01:45:40;;;;;;;;;;;;;;;-144.99;100.00;52680.47;5012464;28;19968;-77
2023/12/11 01:48:07;;;;;;;;;;;;;;;-144.99;100.00;52692.69;5019960;28;20002;-70
2023/12/11 01:50:33;;;;;;;;;;;;;;;-144.99;100.00;52674.34;5013785;28;20458;-67
2023/12/11 01:53:02;;;;;;;;;;;;;;;-144.99;100.00;52688.63;5011895;28;19926;-66
2023/12/11 01:55:28;;;;;;;;;;;;;;;-144.99;100.00;52688.63;5012752;28;19952;-68
2023/12/11 01:57:55;;;;;;;;;;;;;;;-144.99;100.00;52668.22;5011026;28;19933;-69
2023/12/11 02:00:22;;;;;;;;;;;;;;;-144.99;100.00;52696.78;5013885;28;20348;-67
2023/12/11 02:02:50;;;;;;;;;;;;;;;-144.99;100.00;52680.47;5012395;28;19936;-67
2023/12/11 02:05:16;;;;;;;;;;;;;;;-144.99;100.00;52635.63;5009294;28;19929;-67
2023/12/11 02:07:43;;;;;;;;;;;;;;;-144.99;100.00;52647.84;5013416;28;19934;-69
2023/12/11 02:10:11;;;;;;;;;;;;;;;-144.99;100.00;52660.09;5011480;28;19925;-68
2023/12/11 02:12:38;;;;;;;;;;;;;;;-144.99;100.00;52639.69;5012371;28;19925;-67
2023/12/11 02:15:05;;;;;;;;;;;;;;;-144.99;100.00;52635.63;5015940;28;19925;-66
2023/12/11 02:17:32;;;;;;;;;;;;;;;-144.99;100.00;52682.50;5019252;28;19926;-67
2023/12/11 02:19:58;;;;;;;;;;;;;;;-144.99;100.00;52684.53;5019759;28;19928;-69
2023/12/11 02:22:25;;;;;;;;;;;;;;;-144.99;100.00;52660.09;5012412;28;19933;-67
2023/12/11 02:24:55;;;;;;;;;;;;;;;-144.99;100.00;52664.16;5015592;28;19929;-67
2023/12/11 02:27:24;;;;;;;;;;;;;;;-144.99;100.00;52686.59;5013054;28;19956;-70
2023/12/11 02:29:53;;;;;;;;;;;;;;;-144.99;100.00;52700.84;5021976;28;19933;-73
2023/12/11 02:32:20;;;;;;;;;;;;;;;-144.99;100.00;52664.16;4996552;28;20363;-71
2023/12/11 02:34:47;;;;;;;;;;;;;;;-144.99;100.00;52676.38;5022553;28;19975;-65
2023/12/11 02:37:14;;;;;;;;;;;;;;;-144.99;100.00;52656.00;5014858;28;19995;-66
2023/12/11 02:39:40;;;;;;;;;;;;;;;-144.99;100.00;52664.16;5016647;28;19971;-66
2023/12/11 02:42:07;;;;;;;;;;;;;;;-144.99;100.00;52605.03;5014653;28;19926;-67
2023/12/11 02:44:35;;;;;;;;;;;;;;;-144.99;100.00;52668.22;5016569;28;19926;-66
2023/12/11 02:47:01;;;;;;;;;;;;;;;-144.99;100.00;52639.69;5010315;28;19929;-65
2023/12/11 02:49:28;;;;;;;;;;;;;;;-144.99;100.00;52649.88;5019159;28;19995;-66
2023/12/11 02:51:54;;;;;;;;;;;;;;;-144.99;100.00;52635.63;5016785;28;19929;-65
2023/12/11 02:54:21;;;;;;;;;;;;;;;-144.99;100.00;52627.47;5012045;28;19941;-67
2023/12/11 02:56:47;;;;;;;;;;;;;;;-144.99;100.00;52664.16;5010806;28;20015;-67
2023/12/11 02:59:14;;;;;;;;;;;;;;;-144.99;100.00;52664.16;5013712;28;19925;-67
2023/12/11 03:01:42;;;;;;;;;;;;;;;-144.99;100.00;52635.63;5011329;28;19972;-69
2023/12/11 03:04:08;;;;;;;;;;;;;;;-144.99;100.00;52709.00;5013039;28;19980;-66
2023/12/11 03:06:35;;;;;;;;;;;;;;;-144.99;100.00;52676.38;5013110;28;19929;-67
2023/12/11 03:09:03;;;;;;;;;;;;;;;-144.99;100.00;52643.78;5022221;28;19925;-67
2023/12/11 03:11:29;;;;;;;;;;;;;;;-144.99;100.00;52660.09;5013725;28;19930;-67
2023/12/11 03:13:56;;;;;;;;;;;;;;;-144.99;100.00;52676.38;5011720;28;20451;-67
2023/12/11 03:16:22;;;;;;;;;;;;;;;-144.99;100.00;52664.16;5012133;28;19937;-67
2023/12/11 03:18:50;;;;;;;;;;;;;;;-144.99;100.00;52668.22;5013164;28;20403;-66
2023/12/11 03:21:17;;;;;;;;;;;;;;;-144.99;100.00;52651.94;5016221;28;20031;-67
2023/12/11 03:23:43;;;;;;;;;;;;;;;-144.99;100.00;52619.31;5009995;28;20434;-68
2023/12/11 03:26:10;;;;;;;;;;;;;;;-144.99;100.00;52635.63;5008774;28;19934;-67
2023/12/11 03:28:36;;;;;;;;;;;;;;;-144.99;100.00;52639.69;5022457;28;19929;-67
2023/12/11 03:31:03;;;;;;;;;;;;;;;-144.99;100.00;52631.53;5016743;28;19925;-70
2023/12/11 03:33:30;;;;;;;;;;;;;;;-144.99;100.00;52637.66;5010184;28;20366;-70
2023/12/11 03:35:58;;;;;;;;;;;;;;;-144.99;100.00;52676.38;5012853;28;19930;-70
2023/12/11 03:38:24;;;;;;;;;;;;;;;-144.99;100.00;52623.38;5024524;28;20398;-70
2023/12/11 03:40:51;;;;;;;;;;;;;;;-144.99;100.00;52639.69;5004305;28;19929;-69
2023/12/11 03:43:17;;;;;;;;;;;;;;;-144.99;100.00;52656.00;5019821;28;20347;-71
2023/12/11 03:45:44;;;;;;;;;;;;;;;-144.99;100.00;52643.78;5012329;28;19925;-72
2023/12/11 03:48:10;;;;;;;;;;;;;;;-144.99;100.00;52664.16;5011510;28;19933;-71
2023/12/11 03:50:37;;;;;;;;;;;;;;;-144.99;100.00;52664.16;5010117;28;20340;-71
2023/12/11 03:53:05;;;;;;;;;;;;;;;-144.99;100.00;52637.66;5009786;28;19988;-74
2023/12/11 03:55:31;;;;;;;;;;;;;;;-144.99;100.00;52651.94;5006533;28;19933;-72
2023/12/11 03:57:58;;;;;;;;;;;;;;;-144.99;100.00;52658.03;5009894;28;19934;-67
2023/12/11 04:00:24;;;;;;;;;;;;;;;-144.99;100.00;52656.00;5017413;28;20015;-66
2023/12/11 04:02:51;;;;;;;;;;;;;;;-144.99;100.00;52651.94;5017759;28;19926;-67
2023/12/11 04:05:18;;;;;;;;;;;;;;;-144.99;100.00;52647.84;5017287;28;19925;-67
2023/12/11 04:07:44;;;;;;;;;;;;;;;-144.99;100.00;52680.47;5010897;28;19929;-69
2023/12/11 04:10:12;;;;;;;;;;;;;;;-144.99;100.00;52615.25;5019699;28;20354;-68
2023/12/11 04:12:40;;;;;;;;;;;;;;;-144.99;100.00;52639.69;5010166;28;20045;-68
2023/12/11 04:15:07;;;;;;;;;;;;;;;-144.99;100.00;52615.25;5014214;28;19967;-69
2023/12/11 04:17:34;;;;;;;;;;;;;;;-144.99;100.00;52651.94;5015109;28;19929;-67
2023/12/11 04:20:00;;;;;;;;;;;;;;;-144.99;100.00;52645.81;5015517;28;20330;-67
2023/12/11 04:22:27;;;;;;;;;;;;;;;-144.99;100.00;52631.53;5008857;28;19937;-66
2023/12/11 04:24:54;;;;;;;;;;;;;;;-144.99;100.00;52627.47;5010953;28;19948;-67
2023/12/11 04:27:22;;;;;;;;;;;;;;;-144.99;100.00;52629.50;5017485;28;19929;-66
2023/12/11 04:29:48;;;;;;;;;;;;;;;-144.99;100.00;52643.78;5013088;28;20256;-67
2023/12/11 04:32:15;;;;;;;;;;;;;;;-144.99;100.00;52607.09;5011223;28;19929;-67
2023/12/11 04:34:42;;;;;;;;;;;;;;;-144.99;100.00;52598.94;5018334;28;20329;-69
2023/12/11 04:37:08;;;;;;;;;;;;;;;-144.99;100.00;52656.00;5020084;28;19929;-71
2023/12/11 04:39:35;;;;;;;;;;;;;;;-144.99;100.00;52643.78;5005280;28;19992;-69
2023/12/11 04:42:01;;;;;;;;;;;;;;;-144.99;100.00;52647.84;5009049;28;19926;-68
2023/12/11 04:44:29;;;;;;;;;;;;;;;-144.99;100.00;52627.47;5012124;28;19991;-68
2023/12/11 04:46:56;;;;;;;;;;;;;;;-144.99;100.00;52651.94;5009155;28;19974;-67
2023/12/11 04:49:22;;;;;;;;;;;;;;;-144.99;100.00;52611.16;5020848;28;19936;-70
2023/12/11 04:51:49;;;;;;;;;;;;;;;-144.99;100.00;52680.47;5010488;28;20303;-68
2023/12/11 04:54:15;;;;;;;;;;;;;;;-144.99;100.00;52660.09;5014331;28;19925;-65
2023/12/11 04:56:42;;;;;;;;;;;;;;;-144.99;100.00;52619.31;5010163;28;19929;-64
2023/12/11 04:59:08;;;;;;;;;;;;;;;-144.99;100.00;52619.31;5016156;28;20361;-65
2023/12/11 05:01:36;;;;;;;;;;;;;;;-144.99;100.00;52633.59;5009200;28;19933;-66
2023/12/11 05:04:03;;;;;;;;;;;;;;;-144.99;100.00;52623.38;5011705;28;19925;-66
2023/12/11 05:06:31;;;;;;;;;;;;;;;-144.99;100.00;52619.31;5003898;28;20321;-65
2023/12/11 05:08:57;;;;;;;;;;;;;;;-144.99;100.00;52625.44;5013112;28;19929;-65
2023/12/11 05:11:24;;;;;;;;;;;;;;;-144.99;100.00;52631.53;5011648;28;19965;-68
2023/12/11 05:13:51;;;;;;;;;;;;;;;-144.99;100.00;52625.44;5010145;28;20301;-66
2023/12/11 05:16:17;;;;;;;;;;;;;;;-144.99;100.00;52629.50;5009024;28;20302;-66
2023/12/11 05:18:45;;;;;;;;;;;;;;;-144.99;100.00;52643.78;5014043;28;19984;-67
2023/12/11 05:21:12;;;;;;;;;;;;;;;-144.99;100.00;52656.00;5012371;28;19933;-66
2023/12/11 05:23:38;;;;;;;;;;;;;;;-144.99;100.00;52656.00;5008471;28;19929;-68
2023/12/11 05:26:05;;;;;;;;;;;;;;;-144.99;100.00;52635.63;5005610;28;19937;-69
2023/12/11 05:28:31;;;;;;;;;;;;;;;-144.99;100.00;52631.53;5012335;28;20010;-70
2023/12/11 05:30:58;;;;;;;;;;;;;;;-144.99;100.00;52637.66;5007971;28;19971;-70
2023/12/11 05:33:25;;;;;;;;;;;;;;;-144.99;100.00;52627.47;5014703;28;20438;-70
2023/12/11 05:35:53;;;;;;;;;;;;;;;-144.99;100.00;52623.38;5001452;28;20548;-70
2023/12/11 05:38:19;;;;;;;;;;;;;;;-144.99;100.00;52629.50;5015857;28;20359;-71
2023/12/11 05:40:46;;;;;;;;;;;;;;;-144.99;100.00;52645.81;5009342;28;19933;-71
2023/12/11 05:43:13;;;;;;;;;;;;;;;-144.99;100.00;52668.22;5008083;28;19936;-71
2023/12/11 05:45:39;;;;;;;;;;;;;;;-144.99;100.00;52639.69;5009777;28;20453;-71
2023/12/11 05:48:07;;;;;;;;;;;;;;;-144.99;100.00;52647.84;5018095;28;19995;-70
2023/12/11 05:50:33;;;;;;;;;;;;;;;-144.99;100.00;52607.09;5016504;28;19972;-70
2023/12/11 05:53:01;;;;;;;;;;;;;;;-144.99;100.00;52639.69;5011659;28;19937;-69
2023/12/11 05:55:28;;;;;;;;;;;;;;;-144.99;100.00;52619.31;5016633;28;20461;-70
2023/12/11 05:57:55;;;;;;;;;;;;;;;-144.99;100.00;52635.63;5012597;28;19937;-63
2023/12/11 06:00:21;;;;;;;;;;;;;;;-144.99;100.00;52664.16;5019075;28;19932;-70
2023/12/11 06:02:48;;;;;;;;;;;;;;;-144.99;100.00;52647.84;5016562;28;19929;-70
2023/12/11 06:05:14;;;;;;;;;;;;;;;-144.99;100.00;52645.81;5018146;28;20010;-70
2023/12/11 06:07:41;;;;;;;;;;;;;;;-144.99;100.00;52615.25;5012548;28;19932;-71
2023/12/11 06:10:10;;;;;;;;;;;;;;;-144.99;100.00;52603.00;5019321;28;20072;-69
2023/12/11 06:12:36;;;;;;;;;;;;;;;-144.99;100.00;52668.22;5014847;28;19940;-69
2023/12/11 06:15:03;;;;;;;;;;;;;;;-144.99;100.00;52647.84;4315273;28;10000680;-69
2023/12/11 06:17:29;;;;;;;;;;;;;;;-144.99;100.00;52651.94;5014021;28;19934;-69
2023/12/11 06:19:56;;;;;;;;;;;;;;;-144.99;100.00;52668.22;5009508;28;19929;-69
2023/12/11 06:22:22;;;;;;;;;;;;;;;-144.99;100.00;52619.31;5009092;28;19938;-69
2023/12/11 06:24:49;;;;;;;;;;;;;;;-144.99;100.00;52635.63;5011596;28;20197;-69
2023/12/11 06:27:17;;;;;;;;;;;;;;;-144.99;100.00;52647.84;5016867;28;20074;-69
2023/12/11 06:29:43;;;;;;;;;;;;;;;-144.99;100.00;52651.94;5015086;28;19978;-70
2023/12/11 06:32:10;;;;;;;;;;;;;;;-144.99;100.00;52651.94;5011772;28;19957;-69
2023/12/11 06:34:36;;;;;;;;;;;;;;;-144.99;100.00;52635.63;5008788;28;19940;-69
2023/12/11 06:37:03;;;;;;;;;;;;;;;-144.99;100.00;52639.69;5015119;28;20330;-69
2023/12/11 06:39:30;;;;;;;;;;;;;;;-144.99;100.00;52676.38;5010816;28;19941;-68
2023/12/11 06:41:56;;;;;;;;;;;;;;;-144.99;100.00;52656.00;5006988;28;19934;-68
2023/12/11 06:44:24;;;;;;;;;;;;;;;-144.99;100.00;52674.34;5007784;28;19929;-69
2023/12/11 06:46:52;;;;;;;;;;;;;;;-144.99;100.00;52631.53;5009805;28;19929;-68
2023/12/11 06:49:19;;;;;;;;;;;;;;;-144.99;100.00;52631.53;5018251;28;19929;-68
2023/12/11 06:51:45;;;;;;;;;;;;;;;-144.99;100.00;52643.78;5013111;28;19991;-68
2023/12/11 06:54:12;;;;;;;;;;;;;;;-144.99;100.00;52619.31;5012331;28;19991;-68
2023/12/11 06:56:39;;;;;;;;;;;;;;;-144.99;100.00;52615.25;5006371;28;19926;-68
2023/12/11 06:59:05;;;;;;;;;;;;;;;-144.99;100.00;52647.84;5011139;28;19925;-68
2023/12/11 07:01:34;;;;;;;;;;;;;;;-144.99;100.00;52656.00;5015781;28;19929;-68
2023/12/11 07:04:01;;;;;;;;;;;;;;;-144.99;100.00;52623.38;5011135;28;19974;-68
2023/12/11 07:06:28;;;;;;;;;;;;;;;-144.99;100.00;52615.25;5008519;28;20175;-68
2023/12/11 07:08:54;;;;;;;;;;;;;;;-144.99;100.00;52635.63;5013230;28;19933;-68
2023/12/11 07:11:21;;;;;;;;;;;;;;;-144.99;100.00;52680.47;5011557;28;19991;-68
2023/12/11 07:13:47;;;;;;;;;;;;;;;-144.99;100.00;52635.63;5013814;28;19933;-68
2023/12/11 07:16:15;;;;;;;;;;;;;;;-144.99;100.00;52668.22;5010971;28;19932;-68
2023/12/11 07:18:44;;;;;;;;;;;;;;;-144.99;100.00;52590.78;5008865;28;19926;-68
2023/12/11 07:21:10;;;;;;;;;;;;;;;-144.99;100.00;52649.88;5010919;28;19964;-68
2023/12/11 07:23:37;;;;;;;;;;;;;;;-144.99;100.00;52658.03;5008481;28;19930;-68
2023/12/11 07:26:08;;;;;;;;;;;;;;;-144.99;100.00;52672.31;5007351;28;19979;-68
2023/12/11 07:28:34;;;;;;;;;;;;;;;-144.99;100.00;52619.31;5006414;28;20020;-67
2023/12/11 07:31:02;;;;;;;;;;;;;;;-144.99;100.00;52639.69;5009933;28;19929;-68
2023/12/11 07:33:28;;;;;;;;;;;;;;;-144.99;100.00;52651.94;5011562;28;19930;-68
2023/12/11 07:35:56;;;;;;;;;;;;;;;-144.99;100.00;52647.84;5019169;28;20418;-66
2023/12/11 07:38:25;;;;;;;;;;;;;;;-144.99;100.00;52676.38;5011839;28;19984;-67
2023/12/11 07:40:51;;;;;;;;;;;;;;;-144.99;100.00;52613.19;5007566;28;20307;-67
2023/12/11 07:43:18;;;;;;;;;;;;;;;-144.99;100.00;52619.31;5008906;28;20009;-67
2023/12/11 07:45:44;;;;;;;;;;;;;;;-144.99;100.00;52627.47;5009238;28;19929;-68
2023/12/11 07:48:11;;;;;;;;;;;;;;;-144.99;100.00;52639.69;5016706;28;19929;-67
2023/12/11 07:50:39;;;;;;;;;;;;;;;-144.99;100.00;52656.00;5012756;28;20018;-68
2023/12/11 07:53:07;;;;;;;;;;;;;;;-144.99;100.00;52668.22;5007941;28;19999;-68
2023/12/11 07:55:35;;;;;;;;;;;;;;;-144.99;100.00;52674.34;5011832;28;19935;-67
2023/12/11 07:58:02;;;;;;;;;;;;;;;-144.99;100.00;52658.03;5008683;28;19940;-68
2023/12/11 08:00:29;;;;;;;;;;;;;;;-144.99;100.00;52678.44;5013073;28;20446;-67
2023/12/11 08:02:56;;;;;;;;;;;;;;;-144.99;100.00;52631.53;5005715;28;19979;-69
2023/12/11 08:05:22;;;;;;;;;;;;;;;-144.99;100.00;52651.94;5014198;28;19933;-69
2023/12/11 08:07:49;;;;;;;;;;;;;;;-144.99;100.00;52639.69;5011688;28;19941;-70
2023/12/11 08:10:17;;;;;;;;;;;;;;;-144.99;100.00;52615.25;5013935;28;19972;-69
2023/12/11 08:12:43;;;;;;;;;;;;;;;-144.99;100.00;52639.69;5014766;28;19929;-69
2023/12/11 08:15:10;;;;;;;;;;;;;;;-144.99;100.00;52627.47;5013719;28;19929;-69
2023/12/11 08:17:37;;;;;;;;;;;;;;;-144.99;100.00;52643.78;5014749;28;19929;-69
2023/12/11 08:20:05;;;;;;;;;;;;;;;-144.99;100.00;52639.69;5017602;28;19925;-69
2023/12/11 08:22:31;;;;;;;;;;;;;;;-144.99;100.00;52617.28;5000595;28;19935;-69
2023/12/11 08:24:58;;;;;;;;;;;;;;;-144.99;100.00;52660.09;5012917;28;19933;-68
2023/12/11 08:27:26;;;;;;;;;;;;;;;-144.99;100.00;52635.63;4671116;28;9999732;-68
2023/12/11 08:29:52;;;;;;;;;;;;;;;-144.99;100.00;52643.78;5007804;28;19950;-68
2023/12/11 08:32:19;;;;;;;;;;;;;;;-144.99;100.00;52637.66;5007683;28;20287;-68
2023/12/11 08:34:45;;;;;;;;;;;;;;;-144.99;100.00;52660.09;5010233;28;19980;-68
2023/12/11 08:37:12;;;;;;;;;;;;;;;-144.99;100.00;52649.88;5008297;28;19962;-68
2023/12/11 08:39:39;;;;;;;;;;;;;;;-144.99;100.00;52627.47;5011800;28;20102;-68
2023/12/11 08:42:05;;;;;;;;;;;;;;;-144.99;100.00;52664.16;5003865;28;19937;-69
2023/12/11 08:44:33;;;;;;;;;;;;;;;-144.99;100.00;52627.47;5009567;28;19971;-69
2023/12/11 08:47:00;;;;;;;;;;;;;;;-144.99;100.00;52643.78;5010567;28;20338;-69
2023/12/11 08:49:26;;;;;;;;;;;;;;;-144.99;100.00;52647.84;5009212;28;19929;-69
2023/12/11 08:51:53;;;;;;;;;;;;;;;-144.99;100.00;52627.47;5007688;28;19926;-69
2023/12/11 08:54:20;;;;;;;;;;;;;;;-144.99;100.00;52651.94;5006187;28;19960;-69
2023/12/11 08:56:46;;;;;;;;;;;;;;;-144.99;100.00;52617.28;5005263;28;19929;-69
2023/12/11 08:59:13;;;;;;;;;;;;;;;-144.99;100.00;52643.78;5010696;28;20059;-70
2023/12/11 09:01:41;;;;;;;;;;;;;;;-144.99;100.00;52647.84;5001010;28;19965;-69
2023/12/11 09:04:07;;;;;;;;;;;;;;;-144.99;100.00;52619.31;5004884;28;19983;-69
2023/12/11 09:06:34;;;;;;;;;;;;;;;-144.99;100.00;52623.38;5008479;28;19936;-68
2023/12/11 09:09:00;;;;;;;;;;;;;;;-144.99;100.00;52631.53;5011204;28;19979;-69
2023/12/11 09:11:27;;;;;;;;;;;;;;;-144.99;100.00;52643.78;5009880;28;20028;-69
2023/12/11 09:13:53;;;;;;;;;;;;;;;-144.99;100.00;52668.22;5007464;28;19971;-69
2023/12/11 09:16:20;;;;;;;;;;;;;;;-144.99;100.00;52631.53;5011458;28;19933;-69
2023/12/11 09:18:48;;;;;;;;;;;;;;;-144.99;100.00;52656.00;5014561;28;19941;-68
2023/12/11 09:21:15;;;;;;;;;;;;;;;-144.99;100.00;52605.03;5008062;28;20356;-68
2023/12/11 09:23:41;;;;;;;;;;;;;;;-144.99;100.00;52645.81;5006266;28;19930;-68
2023/12/11 09:26:08;;;;;;;;;;;;;;;-144.99;100.00;52660.09;5010191;28;20470;-69
2023/12/11 09:28:35;;;;;;;;;;;;;;;-144.99;100.00;52647.84;5009415;28;20441;-69
2023/12/11 09:31:03;;;;;;;;;;;;;;;-144.99;100.00;52625.44;5012354;28;19937;-69
2023/12/11 09:33:29;;;;;;;;;;;;;;;-144.99;100.00;52615.25;5010654;28;19929;-74
2023/12/11 09:35:59;;;;;;;;;;;;;;;-144.99;100.00;52643.78;5027370;28;19929;-69
2023/12/11 09:38:25;;;;;;;;;;;;;;;-144.99;100.00;52664.16;5011478;28;19945;-69
2023/12/11 09:40:52;;;;;;;;;;;;;;;-144.99;100.00;52615.25;5007831;28;19941;-69
2023/12/11 09:43:19;;;;;;;;;;;;;;;-144.99;100.00;52621.34;5010165;28;20313;-69
2023/12/11 09:45:47;;;;;;;;;;;;;;;-144.99;100.00;52623.38;5007524;28;20355;-69
2023/12/11 09:48:14;;;;;;;;;;;;;;;-144.99;100.00;52621.34;5006367;28;19933;-69
2023/12/11 09:50:41;;;;;;;;;;;;;;;-144.99;100.00;52623.38;5008964;28;20447;-69
2023/12/11 09:53:09;;;;;;;;;;;;;;;-144.99;100.00;52613.19;4993070;28;19949;-69
2023/12/11 09:55:36;;;;;;;;;;;;;;;-144.99;100.00;52605.03;5012861;28;20503;-70
2023/12/11 09:58:04;;;;;;;;;;;;;;;-144.99;100.00;52658.03;5008248;28;19929;-70
2023/12/11 10:00:31;;;;;;;;;;;;;;;-144.99;100.00;52651.94;5004585;28;19933;-70
2023/12/11 10:03:00;;;;;;;;;;;;;;;-144.99;100.00;52613.19;5005607;28;19937;-70
2023/12/11 10:05:27;;;;;;;;;;;;;;;-144.99;100.00;52631.53;5010518;28;19929;-70
2023/12/11 10:07:53;;;;;;;;;;;;;;;-144.99;100.00;52615.25;5009595;28;19929;-70
2023/12/11 10:10:26;;;;;;;;;;;;;;;-144.99;100.00;52623.38;5014356;28;20200;-70
2023/12/11 10:12:53;;;;;;;;;;;;;;;-144.99;100.00;52658.03;5002360;28;19968;-70
2023/12/11 10:15:21;;;;;;;;;;;;;;;-144.99;100.00;52619.31;5008322;28;19933;-70
2023/12/11 10:17:47;;;;;;;;;;;;;;;-144.99;100.00;52603.00;5019229;28;19941;-69
2023/12/11 10:20:15;;;;;;;;;;;;;;;-144.99;100.00;52625.44;5010346;28;19929;-70
2023/12/11 10:22:41;;;;;;;;;;;;;;;-144.99;100.00;52627.47;5010315;28;19953;-69
2023/12/11 10:25:08;;;;;;;;;;;;;;;-144.99;100.00;52647.84;5000756;28;20470;-69
2023/12/11 10:27:36;;;;;;;;;;;;;;;-144.99;100.00;52619.31;5007510;28;19965;-69
2023/12/11 10:30:12;;;;;;;;;;;;;;;-144.99;100.00;52598.94;5009764;28;19930;-70
2023/12/11 10:32:38;;;;;;;;;;;;;;;-144.99;100.00;52590.78;5000412;28;20249;-69
2023/12/11 10:35:06;;;;;;;;;;;;;;;-144.99;100.00;52617.28;5013973;28;19976;-69
2023/12/11 10:37:34;;;;;;;;;;;;;;;-144.99;100.00;52611.16;5018711;28;20336;-69
2023/12/11 10:40:02;;;;;;;;;;;;;;;-144.99;100.00;52594.84;5014444;28;19929;-69
2023/12/11 10:42:28;;;;;;;;;;;;;;;-144.99;100.00;52647.84;5013797;28;19952;-69
2023/12/11 10:44:56;;;;;;;;;;;;;;;-144.99;100.00;52629.50;5010374;28;20028;-69
2023/12/11 10:47:23;;;;;;;;;;;;;;;-144.99;100.00;52660.09;5015423;28;19925;-69
2023/12/11 10:49:50;;;;;;;;;;;;;;;-144.99;100.00;52631.53;5014480;28;19933;-69
2023/12/11 10:52:17;;;;;;;;;;;;;;;-144.99;100.00;52594.84;5016866;28;19964;-69
2023/12/11 10:54:43;;;;;;;;;;;;;;;-144.99;100.00;52615.25;5012021;28;19956;-69
2023/12/11 10:57:12;;;;;;;;;;;;;;;-144.99;100.00;52631.53;5016473;28;19933;-69
2023/12/11 10:59:39;;;;;;;;;;;;;;;-144.99;100.00;52607.09;5022762;28;19979;-69
2023/12/11 11:02:11;;;;;;;;;;;;;;;-144.99;100.00;52607.09;5012902;28;19960;-69
2023/12/11 11:04:40;;;;;;;;;;;;;;;-144.99;100.00;52578.53;5016743;28;20028;-70
2023/12/11 11:07:09;;;;;;;;;;;;;;;-144.99;100.00;52590.78;5006999;28;20022;-70
2023/12/11 11:09:41;;;;;;;;;;;;;;;-144.99;100.00;52611.16;5014693;28;19983;-70
2023/12/11 11:12:13;;;;;;;;;;;;;;;-144.99;100.00;52619.31;5012094;28;19929;-70
2023/12/11 11:14:45;;;;;;;;;;;;;;;-144.99;100.00;52603.00;4999846;28;19930;-70
2023/12/11 11:17:14;;;;;;;;;;;;;;;-144.99;100.00;52590.78;5008181;28;19933;-70
2023/12/11 11:19:55;;;;;;;;;;;;;;;-144.99;100.00;52627.47;5009060;28;20360;-70
2023/12/11 11:22:22;;;;;;;;;;;;;;;-144.99;100.00;52594.84;5008683;28;20354;-70
2023/12/11 11:24:48;;;;;;;;;;;;;;;-144.99;100.00;52607.09;5003215;28;19941;-70
2023/12/11 11:27:38;;;;;;;;;;;;;;;-144.99;100.00;52590.78;5009823;28;20414;-70
2023/12/11 11:30:05;;;;;;;;;;;;;;;-144.99;100.00;52647.84;5003750;28;19934;-70
2023/12/11 11:32:46;;;;;;;;;;;;;;;-144.99;100.00;52674.34;5012061;28;19930;-70
2023/12/11 11:35:35;;;;;;;;;;;;;;;-144.99;100.00;52651.94;5011856;28;20024;-70
2023/12/11 11:38:02;;;;;;;;;;;;;;;-144.99;100.00;52631.53;4999394;28;19966;-70
2023/12/11 11:40:33;;;;;;;;;;;;;;;-144.99;100.00;52660.09;5021698;28;20296;-70
2023/12/11 11:42:59;;;;;;;;;;;;;;;-144.99;100.00;52627.47;5013170;28;20403;-70
2023/12/11 11:45:26;;;;;;;;;;;;;;;-144.99;100.00;52613.19;5007142;28;19933;-70
2023/12/11 11:47:52;;;;;;;;;;;;;;;-144.99;100.00;52629.50;5010252;28;19925;-70
2023/12/11 11:50:20;;;;;;;;;;;;;;;-144.99;100.00;52664.16;5014557;28;19968;-70
2023/12/11 11:52:48;;;;;;;;;;;;;;;-144.99;100.00;52607.09;5017396;28;20023;-70
2023/12/11 11:55:19;;;;;;;;;;;;;;;-144.99;100.00;52627.47;5010690;28;19991;-71
2023/12/11 11:57:45;;;;;;;;;;;;;;;-144.99;100.00;52603.00;5009039;28;19929;-70
2023/12/11 12:00:12;;;;;;;;;;;;;;;-144.99;100.00;52607.09;5016866;28;20019;-70
2023/12/11 12:02:39;;;;;;;;;;;;;;;-144.99;100.00;52623.38;4996782;28;19937;-71
2023/12/11 12:05:08;;;;;;;;;;;;;;;-144.99;100.00;52603.00;5011917;28;20003;-71
2023/12/11 12:07:38;;;;;;;;;;;;;;;-144.99;100.00;52635.63;5006104;28;20004;-70
2023/12/11 12:10:05;;;;;;;;;;;;;;;-144.99;100.00;52623.38;5011323;28;20294;-71
2023/12/11 12:12:32;;;;;;;;;;;;;;;-144.99;100.00;52647.84;5004708;28;19948;-70
2023/12/11 12:15:02;;;;;;;;;;;;;;;-144.99;100.00;52651.94;4992046;28;20360;-71
2023/12/11 12:17:29;;;;;;;;;;;;;;;-144.99;100.00;52613.19;5013435;28;20388;-66
2023/12/11 12:19:55;;;;;;;;;;;;;;;-144.99;100.00;52641.72;5019680;28;19965;-71